Time;durP1;ratioP1;P1;durP2;ratioP2;P2;SDS_P1;SDS_P2;PMS_P1;PMS_P2;Temp;Humidity;BMP_temperature;BMP_pressure;BME280_temperature;BME280_humidity;BME280_pressure;Samples;Min_cycle;Max_cycle;Signal;HPM_P1;HPM_P2
2023/12/10 00:01:45;;;;;;;;;;;;;;;8.68;68.31;99622.84;7365160;19;19926;-60
2023/12/10 00:04:11;;;;;;;;;;;;;;;8.68;68.48;99637.63;7369128;19;19993;-60
2023/12/10 00:06:36;;;;;;;;;;;;;;;8.66;68.30;99621.19;7369279;19;19922;-60
2023/12/10 00:09:02;;;;;;;;;;;;;;;8.65;68.59;99619.50;7335873;19;19999;-61
2023/12/10 00:11:27;;;;;;;;;;;;;;;8.64;68.35;99630.81;7368580;19;19939;-60
2023/12/10 00:13:53;;;;;;;;;;;;;;;8.63;68.61;99626.50;7374778;19;20637;-60
2023/12/10 00:16:18;;;;;;;;;;;;;;;8.61;68.20;99608.31;7367402;19;19927;-60
2023/12/10 00:18:43;;;;;;;;;;;;;;;8.60;68.23;99603.19;7372524;19;19938;-60
2023/12/10 00:21:11;;;;;;;;;;;;;;;8.57;68.86;99607.59;7370079;19;20337;-61
2023/12/10 00:23:37;;;;;;;;;;;;;;;8.57;68.84;99610.19;7367553;19;19919;-61
2023/12/10 00:26:02;;;;;;;;;;;;;;;8.54;69.28;99618.09;7358762;19;20729;-59
2023/12/10 00:28:27;;;;;;;;;;;;;;;8.53;68.96;99621.59;7368134;19;19937;-60
2023/12/10 00:30:52;;;;;;;;;;;;;;;8.52;69.01;99629.47;7371583;19;20074;-60
2023/12/10 00:33:19;;;;;;;;;;;;;;;8.51;69.10;99623.38;7367922;19;19906;-61
2023/12/10 00:35:44;;;;;;;;;;;;;;;8.49;69.61;99637.34;7361426;19;19997;-60
2023/12/10 00:38:09;;;;;;;;;;;;;;;8.48;69.52;99639.09;7368374;19;19994;-60
2023/12/10 00:40:35;;;;;;;;;;;;;;;8.49;69.54;99639.94;7363424;19;20327;-60
2023/12/10 00:43:00;;;;;;;;;;;;;;;8.47;69.90;99642.59;7363391;19;19910;-59
2023/12/10 00:45:25;;;;;;;;;;;;;;;8.45;69.77;99652.19;7368186;19;19930;-60
2023/12/10 00:47:51;;;;;;;;;;;;;;;8.46;69.81;99651.28;7364593;19;19919;-60
2023/12/10 00:50:16;;;;;;;;;;;;;;;8.46;69.98;99648.69;7365634;19;19922;-61
2023/12/10 00:52:41;;;;;;;;;;;;;;;8.43;70.10;99648.78;7363820;19;19962;-60
2023/12/10 00:55:06;;;;;;;;;;;;;;;8.45;69.91;99649.59;7363207;19;19914;-60
2023/12/10 00:57:33;;;;;;;;;;;;;;;8.44;70.01;99645.28;7365966;19;19922;-61
2023/12/10 00:59:58;;;;;;;;;;;;;;;8.43;70.00;99655.75;7337306;19;19926;-60
2023/12/10 01:02:24;;;;;;;;;;;;;;;8.43;70.02;99655.75;7370597;19;19922;-61
2023/12/10 01:04:49;;;;;;;;;;;;;;;8.42;70.29;99660.09;7360218;19;19946;-60
2023/12/10 01:07:16;;;;;;;;;;;;;;;8.41;69.84;99657.53;7367002;19;19964;-61
2023/12/10 01:09:42;;;;;;;;;;;;;;;8.40;69.93;99656.69;7361240;19;19923;-60
2023/12/10 01:12:07;;;;;;;;;;;;;;;8.39;70.15;99665.38;7370080;19;19923;-60
2023/12/10 01:14:32;;;;;;;;;;;;;;;8.39;69.99;99670.59;7360990;19;20763;-61
2023/12/10 01:16:57;;;;;;;;;;;;;;;8.38;70.21;99673.25;7367371;19;19919;-61
2023/12/10 01:19:23;;;;;;;;;;;;;;;8.37;70.31;99682.81;7369735;19;20634;-60
2023/12/10 01:21:49;;;;;;;;;;;;;;;8.36;70.30;99675.88;7361498;19;19922;-61
2023/12/10 01:24:16;;;;;;;;;;;;;;;8.31;70.40;99685.53;7364766;19;20002;-60
2023/12/10 01:26:42;;;;;;;;;;;;;;;8.36;70.10;99707.09;7364706;19;20346;-60
2023/12/10 01:29:07;;;;;;;;;;;;;;;8.35;70.48;99696.72;7366251;19;19933;-60
2023/12/10 01:31:35;;;;;;;;;;;;;;;8.35;70.50;99704.50;7363098;19;19922;-60
2023/12/10 01:34:01;;;;;;;;;;;;;;;8.34;70.17;99719.28;7369042;19;19930;-60
2023/12/10 01:36:26;;;;;;;;;;;;;;;8.34;70.26;99724.47;7364159;19;19915;-60
2023/12/10 01:38:52;;;;;;;;;;;;;;;8.33;70.58;99733.19;7372263;19;20040;-61
2023/12/10 01:41:18;;;;;;;;;;;;;;;8.34;70.57;99734.88;7365969;19;20343;-61
2023/12/10 01:43:43;;;;;;;;;;;;;;;8.33;70.72;99733.19;7367229;19;19911;-60
2023/12/10 01:46:10;;;;;;;;;;;;;;;8.33;70.79;99735.78;7366501;19;20438;-60
2023/12/10 01:48:36;;;;;;;;;;;;;;;8.34;70.65;99734.88;7365037;19;19923;-61
2023/12/10 01:51:01;;;;;;;;;;;;;;;8.34;71.05;99729.69;7368541;19;19951;-60
2023/12/10 01:53:26;;;;;;;;;;;;;;;8.36;70.86;99737.44;7359411;19;19926;-60
2023/12/10 01:55:52;;;;;;;;;;;;;;;8.35;71.15;99726.16;7367900;19;20642;-61
2023/12/10 01:58:17;;;;;;;;;;;;;;;8.37;71.24;99737.44;7365220;19;20331;-61
2023/12/10 02:00:44;;;;;;;;;;;;;;;8.37;71.26;99734.84;7363978;19;19922;-60
2023/12/10 02:03:10;;;;;;;;;;;;;;;8.38;71.25;99736.53;7363021;19;19911;-60
2023/12/10 02:05:35;;;;;;;;;;;;;;;8.39;71.13;99722.63;7368116;19;20839;-61
2023/12/10 02:08:02;;;;;;;;;;;;;;;8.40;71.29;99723.47;7363082;19;19918;-61
2023/12/10 02:10:27;;;;;;;;;;;;;;;8.41;71.01;99733.81;7361601;19;19999;-60
2023/12/10 02:12:52;;;;;;;;;;;;;;;8.42;71.45;99716.50;7357570;19;19994;-60
2023/12/10 02:15:18;;;;;;;;;;;;;;;8.44;71.45;99720.75;7368642;19;19931;-60
2023/12/10 02:17:44;;;;;;;;;;;;;;;8.44;71.23;99715.53;7366173;19;19918;-60
2023/12/10 02:20:13;;;;;;;;;;;;;;;8.46;71.67;99708.53;7365062;19;19930;-60
2023/12/10 02:22:43;;;;;;;;;;;;;;;8.47;71.23;99715.47;7368993;19;19922;-61
2023/12/10 02:25:09;;;;;;;;;;;;;;;8.49;71.55;99711.03;7363605;19;19923;-61
2023/12/10 02:27:34;;;;;;;;;;;;;;;8.49;71.45;99718.84;7364602;19;19929;-61
2023/12/10 02:29:59;;;;;;;;;;;;;;;8.52;71.36;99723.13;7366223;19;19952;-61
2023/12/10 02:32:25;;;;;;;;;;;;;;;8.52;71.41;99703.16;7371080;19;20247;-60
2023/12/10 02:34:50;;;;;;;;;;;;;;;8.53;71.74;99689.25;7366973;19;19939;-59
2023/12/10 02:37:15;;;;;;;;;;;;;;;8.54;71.65;99690.94;7367005;19;19914;-60
2023/12/10 02:39:41;;;;;;;;;;;;;;;8.55;71.56;99686.59;7363550;19;19923;-60
2023/12/10 02:42:06;;;;;;;;;;;;;;;8.55;71.52;99679.63;7363696;19;19958;-61
2023/12/10 02:44:31;;;;;;;;;;;;;;;8.55;71.52;99671.81;7358975;19;19918;-60
2023/12/10 02:46:56;;;;;;;;;;;;;;;8.55;71.52;99664.00;7368672;19;19918;-60
2023/12/10 02:49:22;;;;;;;;;;;;;;;8.57;71.19;99664.84;7370894;19;20570;-58
2023/12/10 02:51:47;;;;;;;;;;;;;;;8.56;71.54;99667.47;7369720;19;19958;-61
2023/12/10 02:54:12;;;;;;;;;;;;;;;8.55;71.31;99671.81;7369135;19;19958;-60
2023/12/10 02:56:38;;;;;;;;;;;;;;;8.55;71.45;99677.03;7364627;19;19914;-61
2023/12/10 02:59:03;;;;;;;;;;;;;;;8.55;71.30;99677.03;7359755;19;19923;-60
2023/12/10 03:01:29;;;;;;;;;;;;;;;8.55;71.18;99674.41;7364066;19;19930;-60
2023/12/10 03:03:54;;;;;;;;;;;;;;;8.55;71.03;99692.63;7361000;19;19981;-60
2023/12/10 03:06:19;;;;;;;;;;;;;;;8.55;71.43;99697.84;7364129;19;19922;-60
2023/12/10 03:08:45;;;;;;;;;;;;;;;8.56;71.55;99699.53;7368409;19;20007;-60
2023/12/10 03:11:10;;;;;;;;;;;;;;;8.56;71.63;99699.53;7360769;19;19925;-60
2023/12/10 03:13:35;;;;;;;;;;;;;;;8.57;71.43;99690.00;7359997;19;19943;-60
2023/12/10 03:16:01;;;;;;;;;;;;;;;8.58;71.45;99670.88;7365081;19;20374;-60
2023/12/10 03:18:27;;;;;;;;;;;;;;;8.58;71.56;99670.88;7365461;19;19922;-60
2023/12/10 03:20:52;;;;;;;;;;;;;;;8.59;71.69;99672.59;7358434;19;19986;-61
2023/12/10 03:23:17;;;;;;;;;;;;;;;8.60;71.68;99676.03;7360292;19;19971;-60
2023/12/10 03:25:43;;;;;;;;;;;;;;;8.60;71.45;99652.63;7362971;19;19915;-60
2023/12/10 03:28:08;;;;;;;;;;;;;;;8.61;71.66;99649.09;7362129;19;19931;-60
2023/12/10 03:30:33;;;;;;;;;;;;;;;8.62;71.47;99648.19;7361526;19;20728;-59
2023/12/10 03:32:58;;;;;;;;;;;;;;;8.62;71.81;99636.06;7365342;19;19919;-60
2023/12/10 03:35:24;;;;;;;;;;;;;;;8.63;71.81;99616.94;7357382;19;20640;-60
2023/12/10 03:37:49;;;;;;;;;;;;;;;8.64;71.97;99618.66;7364790;19;19922;-61
2023/12/10 03:40:14;;;;;;;;;;;;;;;8.65;71.69;99609.09;7364875;19;19922;-60
2023/12/10 03:42:39;;;;;;;;;;;;;;;8.66;71.52;99601.22;7365469;19;19998;-60
2023/12/10 03:45:05;;;;;;;;;;;;;;;8.67;71.61;99597.75;7358457;19;20653;-60
2023/12/10 03:47:30;;;;;;;;;;;;;;;8.69;71.88;99595.06;7372478;19;19966;-60
2023/12/10 03:49:56;;;;;;;;;;;;;;;8.71;71.68;99575.03;7357716;19;19918;-60
2023/12/10 03:52:21;;;;;;;;;;;;;;;8.73;71.68;99566.31;7354251;19;19983;-61
2023/12/10 03:54:46;;;;;;;;;;;;;;;8.75;71.75;99561.03;7362917;19;19930;-60
2023/12/10 03:57:11;;;;;;;;;;;;;;;8.76;72.11;99547.97;7359504;19;20842;-60
2023/12/10 03:59:37;;;;;;;;;;;;;;;8.79;71.70;99549.63;7363974;19;19990;-59
2023/12/10 04:02:02;;;;;;;;;;;;;;;8.80;71.75;99546.09;7356934;19;19934;-60
2023/12/10 04:04:27;;;;;;;;;;;;;;;8.83;71.95;99541.66;7363945;19;19998;-60
2023/12/10 04:06:53;;;;;;;;;;;;;;;8.86;72.07;99540.69;7360989;19;19918;-61
2023/12/10 04:09:18;;;;;;;;;;;;;;;8.88;71.79;99533.69;7360428;19;20653;-61
2023/12/10 04:11:43;;;;;;;;;;;;;;;8.91;72.02;99530.97;7359217;19;19926;-59
2023/12/10 04:14:09;;;;;;;;;;;;;;;8.93;72.17;99525.72;7357934;19;19946;-60
2023/12/10 04:16:35;;;;;;;;;;;;;;;8.96;72.22;99531.66;7359079;19;19931;-60
2023/12/10 04:19:00;;;;;;;;;;;;;;;8.98;72.07;99529.03;7331794;19;19922;-60
2023/12/10 04:21:25;;;;;;;;;;;;;;;9.01;72.19;99529.75;7357870;19;20355;-61
2023/12/10 04:23:50;;;;;;;;;;;;;;;9.02;71.93;99539.28;7363165;19;19927;-60
2023/12/10 04:26:16;;;;;;;;;;;;;;;9.04;72.11;99534.00;7359911;19;19963;-58
2023/12/10 04:28:42;;;;;;;;;;;;;;;9.06;71.92;99534.78;7360365;19;19922;-60
2023/12/10 04:31:08;;;;;;;;;;;;;;;9.08;72.13;99539.06;7365343;19;20717;-60
2023/12/10 04:33:33;;;;;;;;;;;;;;;9.08;72.10;99515.63;7358050;19;20406;-60
2023/12/10 04:35:59;;;;;;;;;;;;;;;9.09;72.13;99506.91;7362167;19;19922;-61
2023/12/10 04:38:24;;;;;;;;;;;;;;;9.11;71.92;99488.59;7372380;19;19922;-60
2023/12/10 04:40:49;;;;;;;;;;;;;;;9.14;71.97;99496.31;7370319;19;20349;-60
2023/12/10 04:43:14;;;;;;;;;;;;;;;9.17;72.03;99493.59;7368767;19;19910;-59
2023/12/10 04:45:40;;;;;;;;;;;;;;;9.19;71.85;99441.47;7367963;19;19923;-60
2023/12/10 04:48:05;;;;;;;;;;;;;;;9.21;71.85;99442.25;7370374;19;19926;-61
2023/12/10 04:50:31;;;;;;;;;;;;;;;9.24;72.08;99465.56;7366247;19;20684;-61
2023/12/10 04:52:56;;;;;;;;;;;;;;;9.25;72.21;99449.03;7370566;19;19923;-60
2023/12/10 04:55:21;;;;;;;;;;;;;;;9.27;71.83;99402.94;7373777;19;20320;-59
2023/12/10 04:57:47;;;;;;;;;;;;;;;9.28;72.17;99370.78;7358873;19;19938;-60
2023/12/10 05:00:12;;;;;;;;;;;;;;;9.29;71.89;99383.75;7370829;19;20017;-60
2023/12/10 05:02:37;;;;;;;;;;;;;;;9.29;72.27;99378.53;7357013;19;19923;-60
2023/12/10 05:05:03;;;;;;;;;;;;;;;9.30;72.01;99427.13;7366999;19;19923;-60
2023/12/10 05:07:28;;;;;;;;;;;;;;;9.31;71.98;99430.56;7369352;19;19930;-60
2023/12/10 05:09:54;;;;;;;;;;;;;;;9.32;72.29;99432.25;7363469;19;20315;-60
2023/12/10 05:12:19;;;;;;;;;;;;;;;9.32;71.76;99417.47;7367088;19;19922;-59
2023/12/10 05:14:45;;;;;;;;;;;;;;;9.33;72.11;99413.13;7365958;19;19941;-60
2023/12/10 05:17:10;;;;;;;;;;;;;;;9.34;71.81;99378.34;7368196;19;19970;-61
2023/12/10 05:19:35;;;;;;;;;;;;;;;9.35;72.01;99356.59;7369452;19;19922;-60
2023/12/10 05:22:01;;;;;;;;;;;;;;;9.35;71.84;99346.19;7367669;19;19919;-60
2023/12/10 05:24:27;;;;;;;;;;;;;;;9.38;71.87;99360.84;7368923;19;19922;-61
2023/12/10 05:26:52;;;;;;;;;;;;;;;9.39;71.94;99358.19;7348983;19;19931;-60
2023/12/10 05:29:17;;;;;;;;;;;;;;;9.39;72.25;99352.97;7349315;19;19915;-60
2023/12/10 05:31:43;;;;;;;;;;;;;;;9.40;72.22;99359.88;7363668;19;20699;-60
2023/12/10 05:34:08;;;;;;;;;;;;;;;9.41;72.08;99360.72;7369437;19;19938;-60
2023/12/10 05:36:33;;;;;;;;;;;;;;;9.41;71.78;99364.16;7367815;19;19929;-60
2023/12/10 05:38:59;;;;;;;;;;;;;;;9.42;71.80;99368.47;7365674;19;19974;-60
2023/12/10 05:41:24;;;;;;;;;;;;;;;9.43;72.19;99354.56;7365429;19;19943;-60
2023/12/10 05:43:49;;;;;;;;;;;;;;;9.44;71.81;99345.81;7364138;19;19990;-61
2023/12/10 05:46:14;;;;;;;;;;;;;;;9.45;71.83;99331.88;7371273;19;19915;-60
2023/12/10 05:48:40;;;;;;;;;;;;;;;9.46;71.76;99325.75;7371887;19;19940;-60
2023/12/10 05:51:05;;;;;;;;;;;;;;;9.48;72.28;99320.47;7366915;19;19929;-60
2023/12/10 05:53:30;;;;;;;;;;;;;;;9.49;72.11;99312.63;7363698;19;20564;-60
2023/12/10 05:55:56;;;;;;;;;;;;;;;9.50;71.84;99303.88;7365777;19;20371;-60
2023/12/10 05:58:21;;;;;;;;;;;;;;;9.52;72.15;99281.19;7363090;19;20855;-60
2023/12/10 06:00:46;;;;;;;;;;;;;;;9.53;71.81;99277.72;7366186;19;19915;-60
2023/12/10 06:03:11;;;;;;;;;;;;;;;9.53;71.77;99264.69;7367859;19;19943;-61
2023/12/10 06:05:37;;;;;;;;;;;;;;;9.54;71.85;99263.75;7367662;19;20450;-60
2023/12/10 06:08:02;;;;;;;;;;;;;;;9.55;71.82;99270.66;7365418;19;19964;-61
2023/12/10 06:10:27;;;;;;;;;;;;;;;9.55;72.09;99270.66;7360294;19;19995;-60
2023/12/10 06:12:53;;;;;;;;;;;;;;;9.56;72.19;99258.47;7365296;19;19910;-61
2023/12/10 06:15:18;;;;;;;;;;;;;;;9.55;71.88;99260.25;7367497;19;20339;-60
2023/12/10 06:17:43;;;;;;;;;;;;;;;9.57;72.06;99268.84;7363872;19;19919;-60
2023/12/10 06:20:09;;;;;;;;;;;;;;;9.58;71.86;99260.13;7373003;19;19919;-60
2023/12/10 06:22:34;;;;;;;;;;;;;;;9.58;72.16;99269.72;7366554;19;20298;-60
2023/12/10 06:24:59;;;;;;;;;;;;;;;9.57;71.73;99266.22;7362327;19;22628;-60
2023/12/10 06:27:25;;;;;;;;;;;;;;;9.59;72.22;99277.44;7361620;19;19919;-59
2023/12/10 06:29:51;;;;;;;;;;;;;;;9.58;71.78;99270.56;7362949;19;20032;-60
2023/12/10 06:32:16;;;;;;;;;;;;;;;9.57;71.67;99258.41;7365829;19;20587;-61
2023/12/10 06:34:41;;;;;;;;;;;;;;;9.54;71.90;99250.72;7372414;19;19915;-59
2023/12/10 06:37:06;;;;;;;;;;;;;;;9.51;71.69;99237.81;7372862;19;19946;-57
2023/12/10 06:39:32;;;;;;;;;;;;;;;9.47;72.03;99225.81;7363454;19;19986;-59
2023/12/10 06:41:57;;;;;;;;;;;;;;;9.45;71.71;99217.25;7329179;19;19919;-58
2023/12/10 06:44:24;;;;;;;;;;;;;;;9.42;72.23;99180.88;7324487;19;19930;-59
2023/12/10 06:46:49;;;;;;;;;;;;;;;9.41;72.08;99155.75;7359390;19;19922;-60
2023/12/10 06:49:15;;;;;;;;;;;;;;;9.39;72.45;99157.56;7358986;19;20353;-60
2023/12/10 06:51:40;;;;;;;;;;;;;;;9.39;72.14;99139.34;7357541;19;19922;-59
2023/12/10 06:54:06;;;;;;;;;;;;;;;9.38;72.55;99158.50;7362978;19;20329;-62
2023/12/10 06:56:33;;;;;;;;;;;;;;;9.39;72.06;99169.75;7356934;19;19925;-62
2023/12/10 06:58:58;;;;;;;;;;;;;;;9.32;72.43;99162.19;7352284;19;19935;-62
2023/12/10 07:01:24;;;;;;;;;;;;;;;9.39;72.40;99186.22;7358595;19;19918;-61
2023/12/10 07:03:51;;;;;;;;;;;;;;;9.39;72.63;99168.00;7368474;19;19922;-61
2023/12/10 07:06:17;;;;;;;;;;;;;;;9.39;72.67;99168.00;7359068;19;19919;-62
2023/12/10 07:08:42;;;;;;;;;;;;;;;9.37;72.33;99172.41;7361038;19;19950;-61
2023/12/10 07:11:10;;;;;;;;;;;;;;;9.35;72.32;99154.25;7362041;19;20015;-58
2023/12/10 07:13:36;;;;;;;;;;;;;;;9.31;72.55;99157.03;7363674;19;19930;-60
2023/12/10 07:16:01;;;;;;;;;;;;;;;9.27;72.46;99152.88;7360759;19;19915;-61
2023/12/10 07:18:26;;;;;;;;;;;;;;;9.21;72.63;99155.75;7362892;19;19922;-60
2023/12/10 07:20:52;;;;;;;;;;;;;;;9.17;72.68;99139.38;7362565;19;19914;-60
2023/12/10 07:23:17;;;;;;;;;;;;;;;9.12;72.36;99120.50;7362692;19;19922;-60
2023/12/10 07:25:42;;;;;;;;;;;;;;;9.08;72.44;99106.78;7366648;19;20541;-59
2023/12/10 07:28:07;;;;;;;;;;;;;;;9.06;72.69;99110.34;7351279;19;19933;-58
2023/12/10 07:30:33;;;;;;;;;;;;;;;9.04;72.70;99100.00;7363879;19;19978;-57
2023/12/10 07:32:58;;;;;;;;;;;;;;;9.01;72.96;99084.50;7361969;19;19929;-61
2023/12/10 07:35:23;;;;;;;;;;;;;;;9.00;73.14;99069.78;7370622;19;19915;-59
2023/12/10 07:37:48;;;;;;;;;;;;;;;8.97;73.07;99059.53;7367713;19;19919;-59
2023/12/10 07:40:14;;;;;;;;;;;;;;;8.95;73.29;99060.50;7364166;19;19922;-60
2023/12/10 07:42:39;;;;;;;;;;;;;;;8.92;73.31;99061.47;7362501;19;19938;-61
2023/12/10 07:45:04;;;;;;;;;;;;;;;8.90;73.42;99047.66;7361207;19;19919;-61
2023/12/10 07:47:30;;;;;;;;;;;;;;;8.88;73.82;99072.94;7360988;19;19930;-60
2023/12/10 07:49:55;;;;;;;;;;;;;;;8.87;73.75;99047.81;7368814;19;20529;-61
2023/12/10 07:52:20;;;;;;;;;;;;;;;8.84;74.47;99051.38;7357013;19;20018;-62
2023/12/10 07:54:45;;;;;;;;;;;;;;;8.84;74.80;99048.78;7361644;19;19922;-62
2023/12/10 07:57:11;;;;;;;;;;;;;;;8.83;75.00;99046.25;7363899;19;19921;-61
2023/12/10 07:59:36;;;;;;;;;;;;;;;8.82;75.03;99021.13;7363518;19;20775;-62
2023/12/10 08:02:01;;;;;;;;;;;;;;;8.81;75.31;99012.44;7358707;19;19982;-60
2023/12/10 08:04:26;;;;;;;;;;;;;;;8.79;75.40;98995.22;7359880;19;19918;-61
2023/12/10 08:06:52;;;;;;;;;;;;;;;8.78;75.59;98972.72;7361402;19;20503;-61
2023/12/10 08:09:17;;;;;;;;;;;;;;;8.76;75.62;98967.56;7365226;19;19918;-61
2023/12/10 08:11:42;;;;;;;;;;;;;;;8.75;75.71;98923.41;7364516;19;20319;-59
2023/12/10 08:14:09;;;;;;;;;;;;;;;8.75;75.54;98816.69;7370039;19;19950;-60
2023/12/10 08:16:34;;;;;;;;;;;;;;;8.74;75.89;98812.41;7371067;19;19937;-59
2023/12/10 08:19:00;;;;;;;;;;;;;;;8.73;75.56;98821.13;7366762;19;20776;-58
2023/12/10 08:21:25;;;;;;;;;;;;;;;8.72;75.70;98796.03;7367548;19;19922;-60
2023/12/10 08:23:51;;;;;;;;;;;;;;;8.70;76.15;98784.84;7368690;19;19922;-60
2023/12/10 08:26:16;;;;;;;;;;;;;;;8.70;76.04;98779.63;7368798;19;19926;-59
2023/12/10 08:28:41;;;;;;;;;;;;;;;8.69;76.82;98757.13;7351460;19;19915;-60
2023/12/10 08:31:08;;;;;;;;;;;;;;;8.68;76.50;98740.69;7364219;19;19923;-59
2023/12/10 08:33:33;;;;;;;;;;;;;;;8.68;76.72;98750.25;7374256;19;19939;-60
2023/12/10 08:35:58;;;;;;;;;;;;;;;8.67;76.70;98739.00;7364228;19;19910;-60
2023/12/10 08:38:24;;;;;;;;;;;;;;;8.67;76.34;98735.53;7370802;19;19915;-60
2023/12/10 08:40:49;;;;;;;;;;;;;;;8.66;76.39;98715.63;7364941;19;20370;-59
2023/12/10 08:43:14;;;;;;;;;;;;;;;8.66;76.75;98700.03;7365022;19;19922;-60
2023/12/10 08:45:40;;;;;;;;;;;;;;;8.65;76.55;98706.16;7368689;19;20281;-60
2023/12/10 08:48:05;;;;;;;;;;;;;;;8.65;76.30;98706.16;7367802;19;19974;-60
2023/12/10 08:50:30;;;;;;;;;;;;;;;8.64;76.93;98691.47;7368276;19;19919;-60
2023/12/10 08:52:56;;;;;;;;;;;;;;;8.62;76.64;98678.53;7364600;19;19915;-61
2023/12/10 08:55:21;;;;;;;;;;;;;;;8.63;76.67;98675.00;7366788;19;19923;-60
2023/12/10 08:57:46;;;;;;;;;;;;;;;8.63;77.09;98668.97;7363306;19;19922;-60
2023/12/10 09:00:12;;;;;;;;;;;;;;;8.64;77.19;98665.44;7364527;19;20414;-60
2023/12/10 09:02:37;;;;;;;;;;;;;;;8.67;77.32;98660.06;7367154;19;21647;-61
2023/12/10 09:05:02;;;;;;;;;;;;;;;8.69;77.22;98658.25;7372001;19;20332;-60
2023/12/10 09:07:29;;;;;;;;;;;;;;;8.72;77.66;98663.31;7362504;19;19919;-60
2023/12/10 09:09:59;;;;;;;;;;;;;;;8.76;77.44;98642.25;7366023;19;20660;-59
2023/12/10 09:12:24;;;;;;;;;;;;;;;8.81;77.80;98644.66;7374795;19;20250;-61
2023/12/10 09:14:49;;;;;;;;;;;;;;;8.86;77.81;98642.66;7367659;19;19922;-61
2023/12/10 09:17:15;;;;;;;;;;;;;;;8.91;78.00;98638.06;7367581;19;19915;-61
2023/12/10 09:19:40;;;;;;;;;;;;;;;8.97;78.29;98640.41;7362474;19;21568;-60
2023/12/10 09:22:05;;;;;;;;;;;;;;;9.03;77.98;98621.88;7367951;19;19914;-61
2023/12/10 09:24:31;;;;;;;;;;;;;;;9.09;78.86;98621.56;7366381;19;20360;-60
2023/12/10 09:26:56;;;;;;;;;;;;;;;9.17;78.61;98625.53;7361400;19;19919;-61
2023/12/10 09:29:21;;;;;;;;;;;;;;;9.24;79.00;98635.56;7362358;19;20610;-61
2023/12/10 09:31:46;;;;;;;;;;;;;;;9.29;78.89;98615.34;7373588;19;19955;-60
2023/12/10 09:34:12;;;;;;;;;;;;;;;9.37;79.01;98614.94;7365752;19;19927;-61
2023/12/10 09:36:38;;;;;;;;;;;;;;;9.41;78.91;98600.84;7352740;19;20790;-60
2023/12/10 09:39:03;;;;;;;;;;;;;;;9.48;79.03;98596.16;7357134;19;19979;-61
2023/12/10 09:41:28;;;;;;;;;;;;;;;9.53;78.95;98583.72;7375085;19;19925;-61
2023/12/10 09:43:53;;;;;;;;;;;;;;;9.59;79.15;98583.44;7365223;19;20589;-61
2023/12/10 09:46:20;;;;;;;;;;;;;;;9.62;79.30;98586.69;7366264;19;19921;-61
2023/12/10 09:48:45;;;;;;;;;;;;;;;9.68;78.95;98587.28;7363691;19;19942;-60
2023/12/10 09:51:10;;;;;;;;;;;;;;;9.73;79.04;98582.69;7360737;19;19915;-61
2023/12/10 09:53:36;;;;;;;;;;;;;;;9.76;79.24;98585.97;7361621;19;19978;-60
2023/12/10 09:56:01;;;;;;;;;;;;;;;9.79;79.12;98595.41;7364223;19;19922;-61
2023/12/10 09:58:26;;;;;;;;;;;;;;;9.83;78.80;98591.69;7365195;19;19923;-61
2023/12/10 10:00:51;;;;;;;;;;;;;;;9.87;79.02;98582.78;7363939;19;19911;-59
2023/12/10 10:03:18;;;;;;;;;;;;;;;9.90;79.10;98587.84;7372032;19;19919;-60
2023/12/10 10:05:44;;;;;;;;;;;;;;;9.92;78.95;98580.78;7363123;19;20339;-60
2023/12/10 10:08:09;;;;;;;;;;;;;;;9.95;79.03;98587.59;7358813;19;19923;-58
2023/12/10 10:10:34;;;;;;;;;;;;;;;9.96;78.99;98595.34;7365959;19;20348;-59
2023/12/10 10:12:59;;;;;;;;;;;;;;;9.97;79.06;98597.00;7363085;19;19922;-59
2023/12/10 10:15:28;;;;;;;;;;;;;;;10.00;79.16;98583.81;7372226;19;19921;-60
2023/12/10 10:17:54;;;;;;;;;;;;;;;10.02;78.89;98581.97;7371911;19;19945;-59
2023/12/10 10:20:23;;;;;;;;;;;;;;;10.04;79.31;98580.13;7366110;19;20545;-60
2023/12/10 10:22:48;;;;;;;;;;;;;;;10.07;79.27;98574.72;7365931;19;20247;-59
2023/12/10 10:25:14;;;;;;;;;;;;;;;10.11;79.53;98581.47;7361958;19;19930;-60
2023/12/10 10:27:39;;;;;;;;;;;;;;;10.13;79.50;98574.38;7362750;19;19925;-60
2023/12/10 10:30:05;;;;;;;;;;;;;;;10.19;79.65;98572.38;7360250;19;20351;-60
2023/12/10 10:32:30;;;;;;;;;;;;;;;10.27;79.59;98570.22;7358982;19;19922;-60
2023/12/10 10:34:56;;;;;;;;;;;;;;;10.41;80.34;98561.63;7359519;19;19948;-60
2023/12/10 10:37:22;;;;;;;;;;;;;;;10.56;80.12;98572.03;7365843;19;20350;-60
2023/12/10 10:39:50;;;;;;;;;;;;;;;10.75;80.47;98581.44;7355437;19;19922;-61
2023/12/10 10:42:18;;;;;;;;;;;;;;;10.93;80.24;98575.16;7365990;19;19922;-61
2023/12/10 10:44:43;;;;;;;;;;;;;;;11.14;80.97;98573.88;7358763;19;20030;-59
2023/12/10 10:47:09;;;;;;;;;;;;;;;11.33;80.59;98572.81;7353962;19;19918;-61
2023/12/10 10:49:35;;;;;;;;;;;;;;;11.46;80.10;98576.38;7356068;19;19915;-61
2023/12/10 10:52:02;;;;;;;;;;;;;;;11.60;79.79;98576.34;7356256;19;19934;-61
2023/12/10 10:54:28;;;;;;;;;;;;;;;11.76;79.61;98580.66;7363206;19;19925;-61
2023/12/10 10:56:53;;;;;;;;;;;;;;;11.93;79.64;98570.03;7352032;19;20677;-61
2023/12/10 10:59:30;;;;;;;;;;;;;;;12.08;79.38;98574.31;7362407;19;19906;-61
2023/12/10 11:01:57;;;;;;;;;;;;;;;12.26;79.36;98577.53;7358496;19;20379;-60
2023/12/10 11:04:22;;;;;;;;;;;;;;;12.43;78.94;98566.84;7357192;19;20858;-61
2023/12/10 11:06:50;;;;;;;;;;;;;;;12.58;79.19;98570.25;7362204;19;19926;-61
2023/12/10 11:09:16;;;;;;;;;;;;;;;12.73;79.04;98564.00;7364194;19;19919;-61
2023/12/10 11:11:41;;;;;;;;;;;;;;;12.90;78.44;98565.50;7362893;19;19926;-61
2023/12/10 11:14:20;;;;;;;;;;;;;;;13.06;78.78;98562.69;7363532;19;19906;-61
2023/12/10 11:17:05;;;;;;;;;;;;;;;13.22;78.52;98560.75;7364754;19;19915;-61
2023/12/10 11:19:33;;;;;;;;;;;;;;;13.41;78.33;98554.28;7359461;19;19922;-61
2023/12/10 11:21:59;;;;;;;;;;;;;;;13.59;77.79;98553.00;7364751;19;20844;-61
2023/12/10 11:24:24;;;;;;;;;;;;;;;13.75;77.71;98540.50;7364346;19;19914;-61
2023/12/10 11:26:50;;;;;;;;;;;;;;;13.90;77.44;98537.75;7361543;19;19922;-61
2023/12/10 11:29:15;;;;;;;;;;;;;;;14.10;77.06;98534.53;7359194;19;19918;-62
2023/12/10 11:31:44;;;;;;;;;;;;;;;14.21;76.87;98518.84;7359358;19;20021;-61
2023/12/10 11:34:09;;;;;;;;;;;;;;;14.37;76.70;98520.38;7367033;19;19951;-61
2023/12/10 11:36:35;;;;;;;;;;;;;;;14.47;76.12;98513.47;7358442;19;19922;-61
2023/12/10 11:39:00;;;;;;;;;;;;;;;14.57;76.00;98518.94;7363488;19;19946;-62
2023/12/10 11:41:25;;;;;;;;;;;;;;;14.66;76.07;98523.50;7357045;19;19929;-61
2023/12/10 11:43:50;;;;;;;;;;;;;;;14.74;74.87;98519.34;7345832;19;19943;-61
2023/12/10 11:46:19;;;;;;;;;;;;;;;14.77;75.06;98516.50;7363966;19;20666;-62
2023/12/10 11:48:45;;;;;;;;;;;;;;;14.79;74.49;98516.38;7361926;19;19918;-61
2023/12/10 11:51:11;;;;;;;;;;;;;;;14.75;73.84;98518.41;7367967;19;20981;-61
2023/12/10 11:53:36;;;;;;;;;;;;;;;14.65;73.63;98522.69;7367914;19;19934;-61
2023/12/10 11:56:02;;;;;;;;;;;;;;;14.57;74.11;98519.75;7364498;19;19964;-61
2023/12/10 11:58:28;;;;;;;;;;;;;;;14.48;74.13;98510.75;7366427;19;19915;-61
2023/12/10 12:00:57;;;;;;;;;;;;;;;14.40;74.33;98518.34;7365785;19;20681;-61
2023/12/10 12:03:23;;;;;;;;;;;;;;;14.35;74.94;98519.66;7366241;19;19942;-62
2023/12/10 12:05:54;;;;;;;;;;;;;;;14.28;74.96;98509.56;7368821;19;20473;-62
2023/12/10 12:08:20;;;;;;;;;;;;;;;14.24;75.21;98513.38;7367613;19;20377;-61
2023/12/10 12:10:45;;;;;;;;;;;;;;;14.22;75.39;98504.78;7365977;19;19919;-62
2023/12/10 12:13:10;;;;;;;;;;;;;;;14.26;76.47;98500.97;7375366;19;19915;-62
2023/12/10 12:15:36;;;;;;;;;;;;;;;14.34;76.81;98507.44;7363625;19;20053;-61
2023/12/10 12:18:02;;;;;;;;;;;;;;;14.46;77.09;98496.06;7361178;19;19922;-61
2023/12/10 12:20:28;;;;;;;;;;;;;;;14.58;76.90;98495.16;7370073;19;19922;-62
2023/12/10 12:22:53;;;;;;;;;;;;;;;14.74;76.36;98495.69;7370205;19;19918;-61
2023/12/10 12:25:19;;;;;;;;;;;;;;;14.81;76.06;98480.31;7367030;19;19925;-62
2023/12/10 12:27:45;;;;;;;;;;;;;;;14.91;76.12;98480.47;7360955;19;21003;-61
2023/12/10 12:30:10;;;;;;;;;;;;;;;14.99;76.17;98494.69;7362952;19;19922;-61
2023/12/10 12:32:36;;;;;;;;;;;;;;;15.12;76.00;98478.00;7369758;19;19918;-61
2023/12/10 12:35:02;;;;;;;;;;;;;;;15.23;75.50;98488.50;7368585;19;19925;-62
2023/12/10 12:37:27;;;;;;;;;;;;;;;15.29;75.16;98467.84;7370850;19;19978;-61
2023/12/10 12:39:53;;;;;;;;;;;;;;;15.37;75.52;98463.78;7362240;19;19919;-61
2023/12/10 12:42:18;;;;;;;;;;;;;;;15.46;75.27;98455.16;7369263;19;19915;-61
2023/12/10 12:44:46;;;;;;;;;;;;;;;15.53;74.68;98451.09;7363407;19;19950;-61
2023/12/10 12:47:11;;;;;;;;;;;;;;;15.58;74.35;98443.69;7375189;19;20853;-60